ěÝzenÝ letovÚho provozu ╚eskÚ republiky
Letiste: LKKB Aktualizace: 17.05.2022 22:59:31  UTC
 METAR LKKB 17.05. 23:00 ...
METAR LKKB 172300Z 00000KT CAVOK 11/10 Q1023 RMK BLU=
 TAF LKKB 17.05. 17:00 ...
TAF LKKB 171700Z 1718/1818 35007KT CAVOK      BECMG 1718/1720 VRB02KT      PROB40 TEMPO 1723/1804 5000 BR      BECMG 1806/1808 11007KT=